createdAt,value
2022-12-28T00:01:42.024Z,99.90
2022-12-28T00:04:15.756Z,99.90
2022-12-28T00:06:51.246Z,99.90
2022-12-28T00:09:23.644Z,99.90
2022-12-28T00:11:55.437Z,99.90
2022-12-28T00:14:28.689Z,99.90
2022-12-28T00:17:01.186Z,99.90
2022-12-28T00:19:34.205Z,99.90
2022-12-28T00:22:10.843Z,99.90
2022-12-28T00:24:43.611Z,99.90
2022-12-28T00:27:15.714Z,99.90
2022-12-28T00:29:47.464Z,99.90
2022-12-28T00:32:19.141Z,99.90
2022-12-28T00:34:50.801Z,99.90
2022-12-28T00:37:23.757Z,99.90
2022-12-28T00:39:55.432Z,99.90
2022-12-28T00:42:27.093Z,99.90
2022-12-28T00:44:58.760Z,99.90
2022-12-28T00:47:30.509Z,99.90
2022-12-28T00:50:04.965Z,99.90
2022-12-28T00:52:37.913Z,99.90
2022-12-28T00:55:09.572Z,99.90
2022-12-28T00:57:41.263Z,99.90
2022-12-28T01:00:13.684Z,99.90
2022-12-28T01:02:45.408Z,99.90
2022-12-28T01:05:17.467Z,99.90
2022-12-28T01:07:50.491Z,99.90
2022-12-28T01:10:22.147Z,99.90
2022-12-28T01:12:53.812Z,99.90
2022-12-28T01:15:25.570Z,99.90
2022-12-28T01:17:57.219Z,99.90
2022-12-28T01:20:28.952Z,99.90
2022-12-28T01:23:01.935Z,99.90
2022-12-28T01:25:33.796Z,99.90
2022-12-28T01:28:05.531Z,99.90
2022-12-28T01:30:38.926Z,99.90
2022-12-28T01:33:11.485Z,99.90
2022-12-28T01:35:44.036Z,99.90
2022-12-28T01:38:21.040Z,99.90
2022-12-28T01:40:53.459Z,99.90
2022-12-28T01:43:36.102Z,99.90
2022-12-28T01:46:09.420Z,99.90
2022-12-28T01:48:45.303Z,99.90
2022-12-28T01:51:18.185Z,99.90
2022-12-28T01:53:53.272Z,99.90
2022-12-28T01:56:25.371Z,99.90
2022-12-28T01:58:58.750Z,99.90
2022-12-28T02:01:31.143Z,99.90
2022-12-28T02:04:04.033Z,99.90
2022-12-28T02:06:36.109Z,99.90
2022-12-28T02:09:14.630Z,99.90
2022-12-28T02:11:47.003Z,99.90
2022-12-28T02:14:20.673Z,99.90
2022-12-28T02:16:59.716Z,99.90
2022-12-28T02:19:45.871Z,99.90
2022-12-28T02:22:34.019Z,99.90
2022-12-28T02:25:32.820Z,99.90
2022-12-28T02:28:17.541Z,99.90
2022-12-28T02:33:34.947Z,99.90
2022-12-28T02:36:17.996Z,99.90
2022-12-28T02:38:54.409Z,99.90
2022-12-28T02:44:03.548Z,99.90
2022-12-28T02:46:57.195Z,99.90
2022-12-28T02:49:47.466Z,99.90
2022-12-28T02:52:21.900Z,99.90
2022-12-28T02:55:19.406Z,99.90
2022-12-28T02:58:06.023Z,99.90
2022-12-28T03:00:44.539Z,99.90
2022-12-28T03:03:21.900Z,99.90
2022-12-28T03:06:19.299Z,99.90
2022-12-28T03:08:54.735Z,99.90
2022-12-28T03:11:32.597Z,99.90
2022-12-28T03:14:06.676Z,99.90
2022-12-28T03:16:58.018Z,99.90
2022-12-28T03:19:50.927Z,99.90
2022-12-28T03:22:42.627Z,99.90
2022-12-28T03:25:34.694Z,99.90
2022-12-28T03:28:25.535Z,99.90
2022-12-28T03:31:08.077Z,99.90
2022-12-28T03:33:41.598Z,99.90
2022-12-28T03:36:17.559Z,99.90
2022-12-28T03:38:53.854Z,99.90
2022-12-28T03:41:28.751Z,99.90
2022-12-28T03:44:03.584Z,99.90
2022-12-28T03:46:40.793Z,99.90
2022-12-28T03:49:12.754Z,99.90
2022-12-28T03:51:46.783Z,99.90
2022-12-28T03:54:18.759Z,99.90
2022-12-28T03:56:51.257Z,99.90
2022-12-28T03:59:22.874Z,99.90
2022-12-28T04:01:54.556Z,99.90
2022-12-28T04:04:26.316Z,99.90
2022-12-28T04:06:59.332Z,99.90
2022-12-28T04:09:32.497Z,99.90
2022-12-28T04:12:04.476Z,99.90
2022-12-28T04:14:36.161Z,99.90
2022-12-28T04:17:07.810Z,99.90
2022-12-28T04:19:39.443Z,99.90
2022-12-28T04:22:12.448Z,99.90
2022-12-28T04:24:44.116Z,99.90
2022-12-28T04:27:15.784Z,99.90
2022-12-28T04:29:47.435Z,99.90
2022-12-28T04:32:19.146Z,99.90
2022-12-28T04:34:50.783Z,99.90
2022-12-28T04:37:23.821Z,99.90
2022-12-28T04:39:57.316Z,99.90
2022-12-28T04:42:29.301Z,99.90
2022-12-28T04:45:00.932Z,99.90
2022-12-28T04:47:32.595Z,99.90
2022-12-28T04:50:04.414Z,99.90
2022-12-28T04:52:37.414Z,99.90
2022-12-28T04:55:09.323Z,99.90
2022-12-28T04:58:00.939Z,99.90
2022-12-28T05:00:32.722Z,99.90
2022-12-28T05:03:04.875Z,99.90
2022-12-28T05:05:36.807Z,99.90
2022-12-28T05:08:09.809Z,99.90
2022-12-28T05:10:41.502Z,99.90
2022-12-28T05:13:13.169Z,99.90
2022-12-28T05:15:44.751Z,99.90
2022-12-28T05:18:16.423Z,99.90
2022-12-28T05:20:48.021Z,99.90
2022-12-28T05:23:21.035Z,99.90
2022-12-28T05:25:53.096Z,99.90
2022-12-28T05:28:25.176Z,99.90
2022-12-28T05:30:59.237Z,99.90
2022-12-28T05:33:31.975Z,99.90
2022-12-28T05:36:04.093Z,99.90
2022-12-28T05:38:37.129Z,99.90
2022-12-28T05:41:11.980Z,99.90
2022-12-28T05:43:43.909Z,99.90
2022-12-28T05:46:16.919Z,99.90
2022-12-28T05:48:48.680Z,99.90
2022-12-28T05:51:21.080Z,99.90
2022-12-28T05:53:54.347Z,99.90
2022-12-28T05:56:27.291Z,99.90
2022-12-28T05:58:59.949Z,99.90
2022-12-28T06:01:33.621Z,99.90
2022-12-28T06:04:06.454Z,99.90
2022-12-28T06:06:38.093Z,99.90
2022-12-28T06:09:11.156Z,99.90
2022-12-28T06:11:43.193Z,99.90
2022-12-28T06:14:14.883Z,99.90
2022-12-28T06:16:46.672Z,99.90
2022-12-28T06:19:18.551Z,99.90
2022-12-28T06:21:50.204Z,99.90
2022-12-28T06:24:23.262Z,99.90
2022-12-28T06:26:54.895Z,99.90
2022-12-28T06:29:26.570Z,99.90
2022-12-28T06:32:00.280Z,99.90
2022-12-28T06:34:32.289Z,99.90
2022-12-28T06:37:04.316Z,99.90
2022-12-28T06:39:37.304Z,99.90
2022-12-28T06:42:08.919Z,99.90
2022-12-28T06:44:44.555Z,99.90
2022-12-28T06:47:16.555Z,99.90
2022-12-28T06:49:48.433Z,99.90
2022-12-28T06:52:20.152Z,99.90
2022-12-28T06:54:53.192Z,99.90
2022-12-28T06:57:24.839Z,99.90
2022-12-28T06:59:56.475Z,99.90
2022-12-28T07:02:28.330Z,99.90
2022-12-28T07:05:00.040Z,99.90
2022-12-28T07:07:31.685Z,99.90
2022-12-28T07:10:05.202Z,99.90
2022-12-28T07:12:36.865Z,99.90
2022-12-28T07:15:08.730Z,99.90
2022-12-28T07:17:40.475Z,99.90
2022-12-28T07:20:12.104Z,99.90
2022-12-28T07:22:43.758Z,99.90
2022-12-28T07:25:16.905Z,99.90
2022-12-28T07:27:48.538Z,99.90
2022-12-28T07:30:20.482Z,99.90
2022-12-28T07:32:52.152Z,99.90
2022-12-28T07:35:23.784Z,99.90
2022-12-28T07:37:55.455Z,99.90
2022-12-28T07:40:28.436Z,99.90
2022-12-28T07:43:00.347Z,99.90
2022-12-28T07:45:32.078Z,99.90
2022-12-28T07:48:03.773Z,99.90
2022-12-28T07:50:38.004Z,99.90
2022-12-28T07:53:09.917Z,99.90
2022-12-28T07:55:43.622Z,99.90
2022-12-28T07:58:15.232Z,99.90
2022-12-28T08:00:46.845Z,99.90
2022-12-28T08:03:19.086Z,99.90
2022-12-28T08:05:50.692Z,99.90
2022-12-28T08:08:22.379Z,99.90
2022-12-28T08:10:55.413Z,99.90
2022-12-28T08:13:27.051Z,99.90
2022-12-28T08:15:58.784Z,99.90
2022-12-28T08:18:30.906Z,99.90
2022-12-28T08:21:03.300Z,99.90
2022-12-28T08:23:34.959Z,99.90
2022-12-28T08:26:09.031Z,99.90
2022-12-28T08:28:40.948Z,99.90
2022-12-28T08:31:13.571Z,99.90
2022-12-28T08:33:45.752Z,99.90
2022-12-28T08:36:17.447Z,99.90
2022-12-28T08:38:49.504Z,99.90
2022-12-28T08:41:23.418Z,99.90
2022-12-28T08:43:55.172Z,99.90
2022-12-28T08:46:28.100Z,99.90
2022-12-28T08:49:00.445Z,99.90
2022-12-28T08:51:33.021Z,99.90
2022-12-28T08:54:04.677Z,99.90
2022-12-28T08:56:38.764Z,99.90
2022-12-28T08:59:12.914Z,99.90
2022-12-28T09:01:45.097Z,99.90
2022-12-28T09:04:17.694Z,99.90
2022-12-28T09:06:49.640Z,99.90
2022-12-28T09:09:22.062Z,99.90
2022-12-28T09:11:55.124Z,99.90
2022-12-28T09:14:26.899Z,99.90
2022-12-28T09:16:58.549Z,99.90
2022-12-28T09:19:30.227Z,99.90
2022-12-28T09:22:01.878Z,99.90
2022-12-28T09:24:33.536Z,99.90
2022-12-28T09:27:06.525Z,99.90
2022-12-28T09:29:38.143Z,99.90
2022-12-28T09:32:09.798Z,99.90
2022-12-28T09:34:41.462Z,99.90
2022-12-28T09:37:13.088Z,99.90
2022-12-28T09:39:44.711Z,99.90
2022-12-28T09:42:21.566Z,99.90
2022-12-28T09:44:57.340Z,99.90
2022-12-28T09:47:31.104Z,99.90
2022-12-28T09:50:06.873Z,99.90
2022-12-28T09:52:49.422Z,99.90
2022-12-28T09:55:21.396Z,99.90
2022-12-28T09:57:55.266Z,99.90
2022-12-28T10:00:28.680Z,99.90
2022-12-28T10:03:01.893Z,99.90
2022-12-28T10:05:34.212Z,99.90
2022-12-28T10:08:06.088Z,99.90
2022-12-28T10:10:42.001Z,99.90
2022-12-28T10:16:15.853Z,99.90
2022-12-28T10:18:48.038Z,99.90
2022-12-28T10:21:25.436Z,99.90
2022-12-28T10:24:30.232Z,99.90
2022-12-28T10:26:57.854Z,99.90
2022-12-28T10:29:32.069Z,99.90
2022-12-28T10:32:05.041Z,99.90
2022-12-28T10:34:37.017Z,99.90
2022-12-28T10:37:14.065Z,99.90
2022-12-28T10:39:50.686Z,99.90
2022-12-28T10:42:24.781Z,99.90
2022-12-28T10:45:02.248Z,99.90
2022-12-28T10:47:36.023Z,99.90
2022-12-28T10:50:37.251Z,99.90
2022-12-28T10:53:24.429Z,99.90
2022-12-28T10:56:03.726Z,99.90
2022-12-28T10:58:35.438Z,99.90
2022-12-28T11:01:15.537Z,99.90
2022-12-28T11:03:58.337Z,99.90
2022-12-28T11:06:30.471Z,99.90
2022-12-28T11:09:05.865Z,99.90
2022-12-28T11:11:37.510Z,99.90
2022-12-28T11:14:13.163Z,99.90
2022-12-28T11:16:44.883Z,99.90
2022-12-28T11:19:16.944Z,99.90
2022-12-28T11:21:49.358Z,99.90
2022-12-28T11:24:26.914Z,99.90
2022-12-28T11:26:58.653Z,99.90
2022-12-28T11:29:30.263Z,99.90
2022-12-28T11:32:04.115Z,99.90
2022-12-28T11:34:37.199Z,99.90
2022-12-28T11:37:11.327Z,99.90
2022-12-28T11:39:46.254Z,99.90
2022-12-28T11:42:41.245Z,99.90
2022-12-28T11:45:14.167Z,99.90
2022-12-28T11:47:45.902Z,99.90
2022-12-28T11:50:42.035Z,99.90
2022-12-28T11:53:31.600Z,99.90
2022-12-28T11:56:05.942Z,99.90
2022-12-28T11:58:48.095Z,99.90
2022-12-28T12:01:41.078Z,99.90
2022-12-28T12:04:16.877Z,99.90
2022-12-28T12:07:26.021Z,99.90
2022-12-28T12:10:12.245Z,99.90
2022-12-28T12:12:49.481Z,99.90
2022-12-28T12:15:24.020Z,99.90
2022-12-28T12:17:59.945Z,99.90
2022-12-28T12:20:43.278Z,99.90
2022-12-28T12:23:19.813Z,99.90
2022-12-28T12:25:54.302Z,99.90
2022-12-28T12:28:32.625Z,99.90
2022-12-28T12:31:07.157Z,99.90
2022-12-28T12:33:41.906Z,99.90
2022-12-28T12:36:21.352Z,99.90
2022-12-28T12:39:04.118Z,99.90
2022-12-28T12:41:38.419Z,99.90
2022-12-28T12:44:22.166Z,99.90
2022-12-28T12:47:20.080Z,99.90
2022-12-28T12:50:03.474Z,99.90
2022-12-28T12:52:42.412Z,99.90
2022-12-28T12:55:19.915Z,99.90
2022-12-28T12:57:58.650Z,99.90
2022-12-28T13:00:38.871Z,99.90
2022-12-28T13:03:16.664Z,99.90
2022-12-28T13:05:51.125Z,99.90
2022-12-28T13:08:25.090Z,99.90
2022-12-28T13:10:56.787Z,99.90
2022-12-28T13:13:32.617Z,99.90
2022-12-28T13:16:08.753Z,99.90
2022-12-28T13:18:45.233Z,99.90
2022-12-28T13:21:18.561Z,99.90
2022-12-28T13:23:50.623Z,99.90
2022-12-28T13:26:25.363Z,99.90
2022-12-28T13:28:58.857Z,99.90
2022-12-28T13:31:36.051Z,99.90
2022-12-28T13:34:15.641Z,99.90
2022-12-28T13:36:47.692Z,99.90
2022-12-28T13:39:20.483Z,99.90
2022-12-28T13:41:53.468Z,99.90
2022-12-28T13:44:37.505Z,99.90
2022-12-28T13:47:14.230Z,99.90
2022-12-28T13:49:49.360Z,99.90
2022-12-28T13:52:23.149Z,99.90
2022-12-28T13:54:56.854Z,99.90
2022-12-28T14:00:21.491Z,99.90
2022-12-28T14:02:55.270Z,99.90
2022-12-28T14:05:28.214Z,99.90
2022-12-28T14:07:59.955Z,99.90
2022-12-28T14:10:31.791Z,99.90
2022-12-28T14:13:04.316Z,99.90
2022-12-28T14:15:41.196Z,99.90
2022-12-28T14:18:15.638Z,99.90
2022-12-28T14:20:48.129Z,99.90
2022-12-28T14:23:20.430Z,99.90
2022-12-28T14:25:52.652Z,99.90
2022-12-28T14:28:29.532Z,99.90
2022-12-28T14:31:01.733Z,99.90
2022-12-28T14:33:36.012Z,99.90
2022-12-28T14:36:08.142Z,99.90
2022-12-28T14:38:41.024Z,99.90
2022-12-28T14:41:17.628Z,99.90
2022-12-28T14:43:51.383Z,99.90
2022-12-28T14:46:30.393Z,99.90
2022-12-28T14:49:17.386Z,99.90
2022-12-28T14:51:50.582Z,99.90
2022-12-28T14:54:23.011Z,99.90
2022-12-28T14:56:59.396Z,99.90
2022-12-28T14:59:33.601Z,99.90
2022-12-28T15:02:05.426Z,99.90
2022-12-28T15:04:37.958Z,99.90
2022-12-28T15:07:11.956Z,99.90
2022-12-28T15:09:43.716Z,99.90
2022-12-28T15:12:16.119Z,99.90
2022-12-28T15:14:49.761Z,99.90
2022-12-28T15:17:21.433Z,99.90
2022-12-28T15:19:53.180Z,99.90
2022-12-28T15:22:26.227Z,99.90
2022-12-28T15:24:57.881Z,99.90
2022-12-28T15:27:29.581Z,99.90
2022-12-28T15:30:06.058Z,99.90
2022-12-28T15:32:38.558Z,99.90
2022-12-28T15:35:10.214Z,99.90
2022-12-28T15:37:43.214Z,99.90
2022-12-28T15:40:14.821Z,99.90
2022-12-28T15:42:46.615Z,99.90
2022-12-28T15:45:18.289Z,99.90
2022-12-28T15:47:52.528Z,99.90
2022-12-28T15:50:24.134Z,99.90
2022-12-28T15:52:57.138Z,99.90
2022-12-28T15:55:28.795Z,99.90
2022-12-28T15:58:00.513Z,99.90
2022-12-28T16:00:32.144Z,99.90
2022-12-28T16:03:04.101Z,99.90
2022-12-28T16:05:36.412Z,99.90
2022-12-28T16:08:09.351Z,99.90
2022-12-28T16:10:40.924Z,99.90
2022-12-28T16:13:12.525Z,99.90
2022-12-28T16:15:44.216Z,99.90
2022-12-28T16:18:15.837Z,99.90
2022-12-28T16:20:47.542Z,99.90
2022-12-28T16:23:20.501Z,99.90
2022-12-28T16:25:52.097Z,99.90
2022-12-28T16:28:23.823Z,99.90
2022-12-28T16:30:55.752Z,99.90
2022-12-28T16:33:27.775Z,99.90
2022-12-28T16:36:00.057Z,99.90
2022-12-28T16:38:33.172Z,99.90
2022-12-28T16:41:05.647Z,99.90
2022-12-28T16:43:37.255Z,99.90
2022-12-28T16:46:10.834Z,99.90
2022-12-28T16:48:42.651Z,99.90
2022-12-28T16:51:14.366Z,99.90
2022-12-28T16:53:47.374Z,99.90
2022-12-28T16:56:18.984Z,99.90
2022-12-28T16:58:50.643Z,99.90
2022-12-28T17:01:22.465Z,99.90
2022-12-28T17:03:57.318Z,99.90
2022-12-28T17:06:31.796Z,99.90
2022-12-28T17:09:05.328Z,99.90
2022-12-28T17:11:36.968Z,99.90
2022-12-28T17:14:10.300Z,99.90
2022-12-28T17:16:41.928Z,99.90
2022-12-28T17:19:16.917Z,99.90
2022-12-28T17:21:49.788Z,99.90
2022-12-28T17:24:22.775Z,99.90
2022-12-28T17:26:54.574Z,99.90
2022-12-28T17:29:26.376Z,99.90
2022-12-28T17:31:58.029Z,99.90
2022-12-28T17:34:29.708Z,99.90
2022-12-28T17:37:04.554Z,99.90
2022-12-28T17:39:40.512Z,99.90
2022-12-28T17:42:12.462Z,99.90
2022-12-28T17:44:45.917Z,99.90
2022-12-28T17:47:17.547Z,99.90
2022-12-28T17:49:49.140Z,99.90
2022-12-28T17:52:22.261Z,99.90
2022-12-28T17:54:55.193Z,99.90
2022-12-28T17:57:26.894Z,99.90
2022-12-28T17:59:58.570Z,99.90
2022-12-28T18:02:30.437Z,99.90
2022-12-28T18:05:02.216Z,99.90
2022-12-28T18:07:34.020Z,99.90
2022-12-28T18:10:07.447Z,99.90
2022-12-28T18:12:39.079Z,99.90
2022-12-28T18:15:10.848Z,99.90
2022-12-28T18:17:42.460Z,99.90
2022-12-28T18:20:16.013Z,99.90
2022-12-28T18:22:47.663Z,99.90
2022-12-28T18:25:20.649Z,99.90
2022-12-28T18:27:55.414Z,99.90
2022-12-28T18:30:27.101Z,99.90
2022-12-28T18:32:58.687Z,99.90
2022-12-28T18:35:30.344Z,99.90
2022-12-28T18:38:01.934Z,99.90
2022-12-28T18:40:37.788Z,99.90
2022-12-28T18:43:09.400Z,99.90
2022-12-28T18:45:41.215Z,99.90
2022-12-28T18:48:12.836Z,99.90
2022-12-28T18:50:51.393Z,99.90
2022-12-28T18:53:24.035Z,99.90
2022-12-28T18:55:57.916Z,99.90
2022-12-28T18:58:30.257Z,99.90
2022-12-28T19:01:02.311Z,99.90
2022-12-28T19:03:34.454Z,99.90
2022-12-28T19:06:07.229Z,99.90
2022-12-28T19:08:43.931Z,99.90
2022-12-28T19:11:17.082Z,99.90
2022-12-28T19:13:48.868Z,99.90
2022-12-28T19:16:30.671Z,99.90
2022-12-28T19:19:06.133Z,99.90
2022-12-28T19:21:41.096Z,99.90
2022-12-28T19:24:17.116Z,99.90
2022-12-28T19:26:50.969Z,99.90
2022-12-28T19:29:23.997Z,99.90
2022-12-28T19:31:56.062Z,99.90
2022-12-28T19:34:29.770Z,99.90
2022-12-28T19:37:01.375Z,99.90
2022-12-28T19:39:38.325Z,99.90
2022-12-28T19:42:13.237Z,99.90
2022-12-28T19:44:45.151Z,99.90
2022-12-28T19:47:16.879Z,99.90
2022-12-28T19:49:48.503Z,99.90
2022-12-28T19:52:22.400Z,99.90
2022-12-28T19:54:55.523Z,99.90
2022-12-28T19:57:31.536Z,99.90
2022-12-28T20:00:09.773Z,99.90
2022-12-28T20:02:43.850Z,99.90
2022-12-28T20:05:15.795Z,99.90
2022-12-28T20:07:52.693Z,99.90
2022-12-28T20:10:26.903Z,99.90
2022-12-28T20:12:59.961Z,99.90
2022-12-28T20:15:31.598Z,99.90
2022-12-28T20:18:05.461Z,99.90
2022-12-28T20:21:09.365Z,99.90
2022-12-28T20:23:28.651Z,99.90
2022-12-28T20:26:00.285Z,99.90
2022-12-28T20:28:34.522Z,99.90
2022-12-28T20:31:07.472Z,99.90
2022-12-28T20:33:39.347Z,99.90
2022-12-28T20:36:11.688Z,99.90
2022-12-28T20:38:43.430Z,99.90
2022-12-28T20:41:34.673Z,99.90
2022-12-28T20:44:08.912Z,99.90
2022-12-28T20:46:41.804Z,99.90
2022-12-28T20:49:13.496Z,99.60
2022-12-28T20:51:47.697Z,99.40
2022-12-28T20:54:19.502Z,98.70
2022-12-28T20:56:55.704Z,97.80
2022-12-28T20:59:29.225Z,97.60
2022-12-28T21:02:01.034Z,97.20
2022-12-28T21:04:35.595Z,96.50
2022-12-28T21:07:07.239Z,96.00
2022-12-28T21:09:38.842Z,95.90
2022-12-28T21:12:10.448Z,95.10
2022-12-28T21:14:43.383Z,94.80
2022-12-28T21:17:15.027Z,95.00
2022-12-28T21:19:46.785Z,95.30
2022-12-28T21:22:18.446Z,95.20
2022-12-28T21:24:50.091Z,95.30
2022-12-28T21:27:21.722Z,95.50
2022-12-28T21:29:54.689Z,95.40
2022-12-28T21:32:26.296Z,95.40
2022-12-28T21:34:57.887Z,95.30
2022-12-28T21:37:35.300Z,94.80
2022-12-28T21:40:08.079Z,94.60
2022-12-28T21:42:39.721Z,94.60
2022-12-28T21:45:12.958Z,94.50
2022-12-28T21:47:44.589Z,94.30
2022-12-28T21:50:16.231Z,94.00
2022-12-28T21:52:47.904Z,93.80
2022-12-28T21:55:38.003Z,93.70
2022-12-28T21:58:09.859Z,93.10
2022-12-28T22:01:01.418Z,92.60
2022-12-28T22:03:51.571Z,92.60
2022-12-28T22:06:23.523Z,92.30
2022-12-28T22:09:13.799Z,92.20
2022-12-28T22:12:03.953Z,92.00
2022-12-28T22:14:35.841Z,92.00
2022-12-28T22:17:14.113Z,91.90
2022-12-28T22:19:46.142Z,92.10
2022-12-28T22:22:17.758Z,92.10
2022-12-28T22:24:49.387Z,91.80
2022-12-28T22:27:20.945Z,91.60
2022-12-28T22:29:52.669Z,91.70
2022-12-28T22:32:25.747Z,91.70
2022-12-28T22:34:57.342Z,91.90
2022-12-28T22:37:28.948Z,92.20
2022-12-28T22:40:01.025Z,92.00
2022-12-28T22:42:32.619Z,92.00
2022-12-28T22:45:04.496Z,91.90
2022-12-28T22:47:37.574Z,91.60
2022-12-28T22:50:10.437Z,91.70
2022-12-28T22:52:42.077Z,91.40
2022-12-28T22:55:13.728Z,91.20
2022-12-28T22:57:45.393Z,91.00
2022-12-28T23:00:17.093Z,90.80
2022-12-28T23:02:51.821Z,90.70
2022-12-28T23:05:23.563Z,89.60
2022-12-28T23:07:55.204Z,89.60
2022-12-28T23:10:26.803Z,89.90
2022-12-28T23:12:58.507Z,89.90
2022-12-28T23:15:30.101Z,90.20
2022-12-28T23:18:21.969Z,90.50
2022-12-28T23:21:11.948Z,90.90
2022-12-28T23:24:09.313Z,92.20
2022-12-28T23:26:59.436Z,93.50
2022-12-28T23:29:33.296Z,94.50
2022-12-28T23:32:08.387Z,95.00
2022-12-28T23:34:41.678Z,95.20
2022-12-28T23:37:16.413Z,95.00
2022-12-28T23:39:50.527Z,94.80
2022-12-28T23:42:24.697Z,94.90
2022-12-28T23:44:56.313Z,94.80
2022-12-28T23:47:28.163Z,94.70
2022-12-28T23:50:03.600Z,94.70
2022-12-28T23:52:35.292Z,94.90
2022-12-28T23:55:07.925Z,95.00
2022-12-28T23:57:39.657Z,94.90
